createdAt,value
2019-04-07T00:02:07.425Z,49.73
2019-04-07T00:04:36.729Z,42.98
2019-04-07T00:07:06.880Z,67.22
2019-04-07T00:09:36.493Z,47.43
2019-04-07T00:12:06.233Z,63.33
2019-04-07T00:14:37.129Z,56.28
2019-04-07T00:17:06.449Z,52.53
2019-04-07T00:19:35.698Z,57.98
2019-04-07T00:22:04.997Z,50.78
2019-04-07T00:24:39.932Z,45.48
2019-04-07T00:27:09.252Z,41.58
2019-04-07T00:29:39.361Z,52.08
2019-04-07T00:32:08.781Z,46.02
2019-04-07T00:34:39.709Z,51.20
2019-04-07T00:37:10.701Z,58.55
2019-04-07T00:39:39.943Z,48.10
2019-04-07T00:42:09.419Z,53.23
2019-04-07T00:44:38.997Z,55.43
2019-04-07T00:47:08.290Z,55.78
2019-04-07T00:49:37.612Z,54.70
2019-04-07T00:52:09.389Z,49.33
2019-04-07T00:54:39.137Z,43.78
2019-04-07T00:57:08.503Z,61.83
2019-04-07T00:59:37.798Z,58.92
2019-04-07T01:02:10.704Z,46.85
2019-04-07T01:04:44.637Z,59.08
2019-04-07T01:07:14.488Z,58.92
2019-04-07T01:09:44.138Z,62.88
2019-04-07T01:12:13.938Z,57.20
2019-04-07T01:14:43.363Z,59.23
2019-04-07T01:17:12.651Z,55.73
2019-04-07T01:19:42.302Z,62.53
2019-04-07T01:22:11.622Z,66.17
2019-04-07T01:24:40.874Z,58.13
2019-04-07T01:27:10.474Z,50.15
2019-04-07T01:29:39.997Z,58.33
2019-04-07T01:32:09.350Z,58.98
2019-04-07T01:34:39.606Z,58.10
2019-04-07T01:37:08.905Z,60.85
2019-04-07T01:39:38.308Z,66.02
2019-04-07T01:42:09.693Z,62.38
2019-04-07T01:44:44.607Z,61.20
2019-04-07T01:47:18.960Z,54.55
2019-04-07T01:49:55.884Z,60.90
2019-04-07T01:52:27.297Z,74.80
2019-04-07T01:55:14.702Z,56.98
2019-04-07T01:58:03.342Z,64.30
2019-04-07T02:00:40.371Z,69.67
2019-04-07T02:03:12.113Z,54.63
2019-04-07T02:05:42.972Z,61.85
2019-04-07T02:08:19.910Z,58.75
2019-04-07T02:11:09.195Z,51.37
2019-04-07T02:13:46.240Z,58.58
2019-04-07T02:16:33.343Z,48.28
2019-04-07T02:19:10.802Z,49.33
2019-04-07T02:21:50.337Z,62.05
2019-04-07T02:24:36.643Z,51.58
2019-04-07T02:27:16.530Z,62.40
2019-04-07T02:29:47.805Z,56.02
2019-04-07T02:32:35.793Z,59.60
2019-04-07T02:35:17.544Z,67.53
2019-04-07T02:37:54.664Z,66.12
2019-04-07T02:40:40.891Z,53.48
2019-04-07T02:46:27.793Z,60.03
2019-04-07T02:49:01.865Z,54.20
2019-04-07T02:51:34.371Z,71.92
2019-04-07T02:54:06.902Z,51.88
2019-04-07T02:56:54.295Z,65.78
2019-04-07T02:59:34.242Z,56.13
2019-04-07T03:02:05.780Z,62.75
2019-04-07T03:04:52.459Z,61.50
2019-04-07T03:07:29.718Z,61.83
2019-04-07T03:10:13.093Z,62.38
2019-04-07T03:12:44.070Z,57.40
2019-04-07T03:15:24.863Z,67.67
2019-04-07T03:18:08.898Z,46.30
2019-04-07T03:20:57.390Z,61.10
2019-04-07T03:23:28.616Z,54.27
2019-04-07T03:26:05.652Z,60.92
2019-04-07T03:28:36.578Z,58.10
2019-04-07T03:31:14.773Z,66.10
2019-04-07T03:33:52.236Z,59.50
2019-04-07T03:37:11.594Z,61.18
2019-04-07T03:39:15.072Z,62.67
2019-04-07T03:41:47.123Z,67.20
2019-04-07T03:44:25.493Z,48.17
2019-04-07T03:47:01.497Z,66.75
2019-04-07T03:49:32.486Z,61.45
2019-04-07T03:52:09.950Z,66.30
2019-04-07T03:54:43.880Z,62.75
2019-04-07T03:57:15.074Z,60.23
2019-04-07T03:59:52.148Z,58.68
2019-04-07T04:02:31.590Z,63.70
2019-04-07T04:05:05.558Z,59.18
2019-04-07T04:10:28.941Z,59.13
2019-04-07T04:13:00.816Z,54.03
2019-04-07T04:15:31.848Z,64.12
2019-04-07T04:18:01.228Z,59.00
2019-04-07T04:20:30.452Z,64.72
2019-04-07T04:22:59.853Z,55.40
2019-04-07T04:25:30.261Z,64.42
2019-04-07T04:28:02.447Z,59.35
2019-04-07T04:30:44.111Z,55.55
2019-04-07T04:33:13.456Z,56.08
2019-04-07T04:35:44.248Z,59.13
2019-04-07T04:38:13.572Z,63.55
2019-04-07T04:40:43.792Z,56.92
2019-04-07T04:43:13.725Z,65.92
2019-04-07T04:45:43.129Z,52.40
2019-04-07T04:48:12.404Z,52.80
2019-04-07T04:50:42.062Z,52.60
2019-04-07T04:53:11.366Z,61.83
2019-04-07T04:55:40.636Z,59.65
2019-04-07T04:58:11.369Z,51.20
2019-04-07T05:00:48.496Z,78.97
2019-04-07T05:03:18.191Z,56.35
2019-04-07T05:05:48.891Z,56.42
2019-04-07T05:08:20.426Z,61.15
2019-04-07T05:10:49.072Z,58.02
2019-04-07T05:13:18.366Z,62.98
2019-04-07T05:15:47.852Z,56.13
2019-04-07T05:18:21.068Z,59.70
2019-04-07T05:20:50.412Z,58.28
2019-04-07T05:23:23.082Z,62.10
2019-04-07T05:25:52.993Z,57.58
2019-04-07T05:28:22.282Z,54.00
2019-04-07T05:30:51.864Z,55.17
2019-04-07T05:33:21.173Z,51.58
2019-04-07T05:35:50.463Z,59.98
2019-04-07T05:38:20.169Z,67.80
2019-04-07T05:40:50.039Z,67.50
2019-04-07T05:43:22.671Z,61.65
2019-04-07T05:45:52.051Z,63.55
2019-04-07T05:48:21.589Z,73.37
2019-04-07T05:50:51.366Z,61.15
2019-04-07T05:53:20.706Z,67.50
2019-04-07T05:55:52.099Z,61.73
2019-04-07T05:58:22.211Z,69.37
2019-04-07T06:00:51.691Z,73.22
2019-04-07T06:03:38.622Z,59.88
2019-04-07T06:06:05.481Z,67.40
2019-04-07T06:08:38.691Z,64.03
2019-04-07T06:11:19.420Z,58.25
2019-04-07T06:13:50.691Z,56.88
2019-04-07T06:16:20.924Z,60.28
2019-04-07T06:18:52.353Z,53.80
2019-04-07T06:21:22.223Z,69.03
2019-04-07T06:23:55.364Z,70.57
2019-04-07T06:26:22.438Z,55.78
2019-04-07T06:28:55.923Z,58.63
2019-04-07T06:31:25.819Z,70.95
2019-04-07T06:33:55.061Z,45.12
2019-04-07T06:36:26.568Z,60.10
2019-04-07T06:38:55.575Z,58.50
2019-04-07T06:41:37.766Z,61.42
2019-04-07T06:44:11.415Z,56.00
2019-04-07T06:46:42.416Z,58.02
2019-04-07T06:49:17.264Z,57.67
2019-04-07T06:52:02.886Z,64.92
2019-04-07T06:54:44.842Z,53.52
2019-04-07T06:57:36.706Z,53.20
2019-04-07T07:00:19.193Z,61.77
2019-04-07T07:03:06.187Z,55.67
2019-04-07T07:05:53.667Z,61.73
2019-04-07T07:08:46.399Z,64.87
2019-04-07T07:11:28.841Z,60.60
2019-04-07T07:14:09.502Z,65.52
2019-04-07T07:16:49.948Z,56.45
2019-04-07T07:19:46.285Z,57.80
2019-04-07T07:22:23.590Z,55.60
2019-04-07T07:25:06.231Z,62.38
2019-04-07T07:27:40.483Z,56.70
2019-04-07T07:30:09.864Z,57.67
2019-04-07T07:32:46.439Z,62.75
2019-04-07T07:35:16.479Z,72.03
2019-04-07T07:37:47.689Z,66.02
2019-04-07T07:40:18.371Z,51.55
2019-04-07T07:42:57.425Z,57.95
2019-04-07T07:45:28.348Z,55.85
2019-04-07T07:47:57.748Z,63.45
2019-04-07T07:50:38.708Z,56.85
2019-04-07T07:53:08.128Z,65.45
2019-04-07T07:55:38.585Z,58.60
2019-04-07T07:58:15.738Z,53.58
2019-04-07T08:00:46.999Z,69.65
2019-04-07T08:03:16.617Z,58.85
2019-04-07T08:05:47.490Z,66.12
2019-04-07T08:08:18.669Z,57.33
2019-04-07T08:10:50.751Z,60.35
2019-04-07T08:13:22.081Z,76.07
2019-04-07T08:15:59.703Z,59.13
2019-04-07T08:18:30.788Z,62.85
2019-04-07T08:21:00.087Z,56.10
2019-04-07T08:23:29.693Z,63.87
2019-04-07T08:26:00.448Z,63.10
2019-04-07T08:28:29.839Z,69.15
2019-04-07T08:31:17.736Z,55.28
2019-04-07T08:33:44.619Z,60.67
2019-04-07T08:36:15.466Z,57.88
2019-04-07T08:38:45.526Z,62.75
2019-04-07T08:41:15.918Z,59.75
2019-04-07T08:43:48.344Z,67.03
2019-04-07T08:46:17.659Z,60.40
2019-04-07T08:48:51.779Z,49.95
2019-04-07T08:51:21.214Z,59.48
2019-04-07T08:53:54.823Z,56.98
2019-04-07T08:56:25.750Z,45.33
2019-04-07T08:58:56.717Z,63.05
2019-04-07T09:01:31.433Z,61.68
2019-04-07T09:04:05.600Z,59.27
2019-04-07T09:06:39.621Z,58.35
2019-04-07T09:09:09.109Z,64.10
2019-04-07T09:11:40.317Z,61.55
2019-04-07T09:14:11.898Z,64.95
2019-04-07T09:17:03.491Z,52.13
2019-04-07T09:19:53.774Z,56.40
2019-04-07T09:22:46.419Z,54.95
2019-04-07T09:25:20.419Z,57.75
2019-04-07T09:27:52.267Z,55.38
2019-04-07T09:30:29.726Z,55.60
2019-04-07T09:33:19.199Z,45.33
2019-04-07T09:36:05.237Z,53.30
2019-04-07T09:38:36.674Z,50.90
2019-04-07T09:41:08.436Z,54.03
2019-04-07T09:43:51.816Z,61.80
2019-04-07T09:46:22.927Z,55.08
2019-04-07T09:48:55.534Z,45.92
2019-04-07T09:51:28.062Z,59.63
2019-04-07T09:54:42.796Z,50.65
2019-04-07T09:57:12.749Z,53.40
2019-04-07T09:59:50.901Z,39.25
2019-04-07T10:02:30.768Z,46.35
2019-04-07T10:05:15.773Z,54.05
2019-04-07T10:07:53.276Z,54.38
2019-04-07T10:10:33.258Z,52.45
2019-04-07T10:13:04.155Z,42.78
2019-04-07T10:15:51.329Z,42.20
2019-04-07T10:18:38.318Z,46.25
2019-04-07T10:21:21.762Z,51.13
2019-04-07T10:23:54.094Z,44.90
2019-04-07T10:26:38.167Z,51.63
2019-04-07T10:29:12.615Z,48.85
2019-04-07T10:31:58.710Z,44.60
2019-04-07T10:34:38.716Z,50.98
2019-04-07T10:37:26.576Z,50.30
2019-04-07T10:40:36.257Z,39.45
2019-04-07T10:43:36.539Z,38.45
2019-04-07T10:46:14.634Z,43.87
2019-04-07T10:49:01.430Z,37.40
2019-04-07T10:51:58.048Z,45.73
2019-04-07T10:54:37.091Z,44.27
2019-04-07T10:57:14.238Z,43.55
2019-04-07T10:59:51.395Z,41.42
2019-04-07T11:02:29.381Z,40.28
2019-04-07T11:05:16.692Z,38.70
2019-04-07T11:07:50.397Z,29.32
2019-04-07T11:10:32.599Z,30.82
2019-04-07T11:13:15.711Z,41.05
2019-04-07T11:15:48.788Z,32.10
2019-04-07T11:18:27.904Z,28.98
2019-04-07T11:21:06.147Z,26.37
2019-04-07T11:23:56.373Z,22.20
2019-04-07T11:26:32.097Z,24.50
2019-04-07T11:29:06.425Z,24.57
2019-04-07T11:34:51.872Z,22.02
2019-04-07T11:37:39.676Z,21.27
2019-04-07T11:40:46.467Z,18.23
2019-04-07T11:43:20.808Z,23.40
2019-04-07T11:46:14.740Z,23.27
2019-04-07T11:49:02.371Z,27.05
2019-04-07T11:51:42.505Z,22.77
2019-04-07T11:54:21.515Z,19.75
2019-04-07T11:57:09.812Z,22.73
2019-04-07T11:59:43.674Z,28.87
2019-04-07T12:02:42.360Z,27.35
2019-04-07T12:05:16.954Z,26.50
2019-04-07T12:07:56.832Z,21.12
2019-04-07T12:10:54.835Z,24.47
2019-04-07T12:13:31.301Z,26.73
2019-04-07T12:16:11.345Z,22.25
2019-04-07T12:18:52.397Z,25.82
2019-04-07T12:21:26.727Z,21.73
2019-04-07T12:24:15.653Z,23.15
2019-04-07T12:26:54.940Z,21.12
2019-04-07T12:29:38.638Z,22.10
2019-04-07T12:32:18.406Z,19.37
2019-04-07T12:38:12.453Z,15.08
2019-04-07T12:40:51.052Z,13.25
2019-04-07T12:43:27.682Z,16.57
2019-04-07T12:46:01.313Z,17.65
2019-04-07T12:48:39.204Z,20.65
2019-04-07T12:51:19.890Z,15.70
2019-04-07T12:53:53.558Z,20.17
2019-04-07T12:56:36.150Z,15.70
2019-04-07T12:59:10.244Z,21.02
2019-04-07T13:01:57.914Z,18.55
2019-04-07T13:04:41.854Z,17.65
2019-04-07T13:07:19.509Z,21.12
2019-04-07T13:10:01.886Z,16.70
2019-04-07T13:12:34.398Z,16.80
2019-04-07T13:15:23.309Z,17.35
2019-04-07T13:17:57.394Z,15.68
2019-04-07T13:20:34.795Z,16.40
2019-04-07T13:23:09.609Z,15.88
2019-04-07T13:25:57.866Z,17.23
2019-04-07T13:28:37.153Z,15.85
2019-04-07T13:31:13.507Z,15.32
2019-04-07T13:33:53.274Z,22.27
2019-04-07T13:36:54.167Z,15.40
2019-04-07T13:39:44.951Z,26.25
2019-04-07T13:42:23.047Z,22.00
2019-04-07T13:45:14.037Z,22.35
2019-04-07T13:47:50.242Z,22.48
2019-04-07T13:50:29.894Z,19.55
2019-04-07T13:53:12.847Z,20.55
2019-04-07T13:56:21.604Z,39.48
2019-04-07T13:59:08.173Z,23.27
2019-04-07T14:01:41.471Z,19.45
2019-04-07T14:04:15.654Z,18.60
2019-04-07T14:06:52.433Z,20.12
2019-04-07T14:09:32.417Z,22.75
2019-04-07T14:12:09.033Z,17.98
2019-04-07T14:14:44.989Z,19.75
2019-04-07T14:17:46.687Z,16.20
2019-04-07T14:20:25.724Z,18.90
2019-04-07T14:23:08.530Z,18.65
2019-04-07T14:25:43.442Z,14.83
2019-04-07T14:28:21.818Z,16.60
2019-04-07T14:30:56.344Z,17.25
2019-04-07T14:33:33.798Z,18.02
2019-04-07T14:36:04.702Z,14.80
2019-04-07T14:38:35.683Z,14.83
2019-04-07T14:41:23.729Z,15.68
2019-04-07T14:43:56.521Z,17.92
2019-04-07T14:46:29.411Z,17.60
2019-04-07T14:49:13.117Z,19.70
2019-04-07T14:51:45.031Z,17.17
2019-04-07T14:54:32.378Z,17.20
2019-04-07T14:57:05.498Z,20.23
2019-04-07T14:59:54.548Z,20.80
2019-04-07T15:02:24.778Z,18.52
2019-04-07T15:05:01.526Z,16.95
2019-04-07T15:07:50.343Z,19.82
2019-04-07T15:10:31.910Z,17.40
2019-04-07T15:13:04.140Z,17.17
2019-04-07T15:15:35.741Z,27.82
2019-04-07T15:18:05.294Z,17.98
2019-04-07T15:20:36.267Z,16.02
2019-04-07T15:23:05.603Z,15.93
2019-04-07T15:25:42.251Z,19.23
2019-04-07T15:28:09.718Z,19.30
2019-04-07T15:30:39.590Z,18.32
2019-04-07T15:33:11.863Z,16.40
2019-04-07T15:35:47.853Z,15.00
2019-04-07T15:38:16.476Z,16.32
2019-04-07T15:40:51.727Z,17.42
2019-04-07T15:43:24.243Z,18.73
2019-04-07T15:45:53.538Z,18.00
2019-04-07T15:48:27.016Z,15.83
2019-04-07T15:51:04.632Z,20.27
2019-04-07T15:53:38.333Z,17.35
2019-04-07T15:56:13.067Z,16.80
2019-04-07T15:58:45.275Z,17.95
2019-04-07T16:01:19.405Z,15.20
2019-04-07T16:03:52.206Z,13.50
2019-04-07T16:06:20.857Z,14.58
2019-04-07T16:09:00.204Z,16.77
2019-04-07T16:11:30.742Z,22.90
2019-04-07T16:13:59.993Z,12.68
2019-04-07T16:16:29.613Z,16.05
2019-04-07T16:18:59.357Z,13.68
2019-04-07T16:21:29.722Z,16.15
2019-04-07T16:23:59.474Z,19.52
2019-04-07T16:26:31.119Z,13.70
2019-04-07T16:28:59.615Z,13.70
2019-04-07T16:31:28.907Z,12.70
2019-04-07T16:33:59.037Z,11.48
2019-04-07T16:36:28.488Z,12.05
2019-04-07T16:39:00.404Z,16.25
2019-04-07T16:41:31.613Z,15.40
2019-04-07T16:44:03.547Z,20.35
2019-04-07T16:46:31.706Z,11.65
2019-04-07T16:49:01.820Z,12.78
2019-04-07T16:51:49.393Z,14.10
2019-04-07T16:54:19.952Z,11.22
2019-04-07T16:56:55.181Z,14.25
2019-04-07T16:59:22.942Z,17.90
2019-04-07T17:01:53.491Z,14.15
2019-04-07T17:04:22.771Z,39.13
2019-04-07T17:07:00.681Z,16.20
2019-04-07T17:09:25.922Z,13.58
2019-04-07T17:12:09.375Z,29.10
2019-04-07T17:14:47.974Z,10.80
2019-04-07T17:17:20.806Z,17.10
2019-04-07T17:19:49.905Z,11.35
2019-04-07T17:22:21.267Z,9.50
2019-04-07T17:24:50.546Z,12.82
2019-04-07T17:27:20.875Z,11.57
2019-04-07T17:29:54.082Z,11.03
2019-04-07T17:32:21.497Z,9.73
2019-04-07T17:34:53.025Z,10.93
2019-04-07T17:37:25.952Z,16.15
2019-04-07T17:39:54.897Z,11.97
2019-04-07T17:42:27.262Z,11.05
2019-04-07T17:45:13.695Z,12.63
2019-04-07T17:47:47.507Z,22.67
2019-04-07T17:53:11.656Z,10.30
2019-04-07T17:55:52.719Z,11.90
2019-04-07T17:58:36.737Z,10.88
2019-04-07T18:01:08.282Z,13.83
2019-04-07T18:03:41.228Z,12.60
2019-04-07T18:06:11.810Z,16.05
2019-04-07T18:09:10.254Z,18.62
2019-04-07T18:15:06.534Z,11.03
2019-04-07T18:17:51.157Z,17.42
2019-04-07T18:20:22.887Z,15.60
2019-04-07T18:23:03.498Z,12.10
2019-04-07T18:25:35.306Z,17.65
2019-04-07T18:28:12.109Z,16.10
2019-04-07T18:30:52.657Z,15.43
2019-04-07T18:33:26.970Z,19.70
2019-04-07T18:36:18.003Z,14.25
2019-04-07T18:39:04.586Z,17.15
2019-04-07T18:44:44.642Z,16.48
2019-04-07T18:47:31.487Z,12.20
2019-04-07T18:50:18.700Z,14.60
2019-04-07T18:53:07.463Z,11.25
2019-04-07T18:55:39.346Z,13.93
2019-04-07T18:58:20.384Z,15.60
2019-04-07T19:01:07.349Z,15.58
2019-04-07T19:03:42.219Z,13.38
2019-04-07T19:06:18.541Z,13.98
2019-04-07T19:11:30.909Z,17.92
2019-04-07T19:14:33.435Z,15.13
2019-04-07T19:16:56.526Z,12.53
2019-04-07T19:19:38.448Z,13.15
2019-04-07T19:22:24.775Z,16.17
2019-04-07T19:25:13.470Z,17.05
2019-04-07T19:28:03.486Z,13.90
2019-04-07T19:30:39.256Z,12.98
2019-04-07T19:33:28.308Z,14.55
2019-04-07T19:36:16.810Z,12.88
2019-04-07T19:38:58.950Z,13.10
2019-04-07T19:44:41.593Z,20.60
2019-04-07T19:47:31.166Z,21.17
2019-04-07T19:50:12.582Z,18.70
2019-04-07T19:52:46.454Z,26.30
2019-04-07T20:00:58.159Z,21.73
2019-04-07T20:03:41.207Z,29.23
2019-04-07T20:06:22.219Z,33.08
2019-04-07T20:08:53.515Z,36.28
2019-04-07T20:11:38.645Z,43.52
2019-04-07T20:14:26.284Z,37.23
2019-04-07T20:17:00.266Z,48.02
2019-04-07T20:22:04.919Z,49.25
2019-04-07T20:24:57.413Z,63.92
2019-04-07T20:27:42.737Z,66.25
2019-04-07T20:30:28.442Z,68.17
2019-04-07T20:33:02.036Z,67.55
2019-04-07T20:35:33.060Z,71.37
2019-04-07T20:38:13.737Z,67.00
2019-04-07T20:40:47.850Z,81.63
2019-04-07T20:43:46.975Z,77.12
2019-04-07T20:46:23.501Z,75.30
2019-04-07T20:49:02.835Z,68.05
2019-04-07T20:51:40.968Z,71.40
2019-04-07T20:54:25.842Z,64.55
2019-04-07T20:56:57.560Z,66.15
2019-04-07T20:59:50.017Z,72.20
2019-04-07T21:02:33.578Z,67.95
2019-04-07T21:05:42.101Z,73.42
2019-04-07T21:08:33.231Z,68.33
2019-04-07T21:11:22.140Z,71.70
2019-04-07T21:14:09.649Z,68.65
2019-04-07T21:17:01.042Z,74.20
2019-04-07T21:19:47.903Z,90.40
2019-04-07T21:22:20.387Z,84.47
2019-04-07T21:24:57.036Z,85.80
2019-04-07T21:27:44.003Z,94.62
2019-04-07T21:30:33.344Z,83.95
2019-04-07T21:33:04.545Z,98.27
2019-04-07T21:35:41.267Z,91.53
2019-04-07T21:38:21.553Z,102.32
2019-04-07T21:40:59.828Z,91.57
2019-04-07T21:43:36.903Z,83.90
2019-04-07T21:46:15.333Z,86.95
2019-04-07T21:49:00.668Z,107.17
2019-04-07T21:51:40.984Z,79.03
2019-04-07T21:54:18.080Z,99.40
2019-04-07T21:56:49.150Z,87.75
2019-04-07T21:59:31.436Z,110.32
2019-04-07T22:02:09.259Z,96.85
2019-04-07T22:04:56.579Z,96.20
2019-04-07T22:07:33.547Z,97.75
2019-04-07T22:10:07.318Z,83.67
2019-04-07T22:12:36.873Z,87.57
2019-04-07T22:15:08.738Z,98.72
2019-04-07T22:17:38.415Z,85.35
2019-04-07T22:20:10.269Z,107.07
2019-04-07T22:22:40.774Z,83.00
2019-04-07T22:25:11.513Z,85.67
2019-04-07T22:27:41.085Z,92.67
2019-04-07T22:30:11.861Z,107.87
2019-04-07T22:32:41.160Z,85.28
2019-04-07T22:35:12.711Z,99.20
2019-04-07T22:37:48.065Z,90.75
2019-04-07T22:40:39.411Z,88.37
2019-04-07T22:43:09.299Z,108.67
2019-04-07T22:45:39.287Z,97.88
2019-04-07T22:48:08.599Z,95.12
2019-04-07T22:50:38.828Z,93.25
2019-04-07T22:53:09.389Z,83.30
2019-04-07T22:55:59.026Z,85.70
2019-04-07T22:58:28.388Z,94.47
2019-04-07T23:00:58.510Z,98.50
2019-04-07T23:03:29.296Z,97.82
2019-04-07T23:05:58.716Z,92.82
2019-04-07T23:08:29.224Z,87.67
2019-04-07T23:10:58.514Z,91.22
2019-04-07T23:13:27.997Z,84.87
2019-04-07T23:16:09.969Z,90.53
2019-04-07T23:18:28.291Z,91.30
2019-04-07T23:21:01.111Z,97.53
2019-04-07T23:23:31.066Z,99.47
2019-04-07T23:26:20.187Z,90.97
2019-04-07T23:28:49.506Z,88.72
2019-04-07T23:31:19.425Z,111.17
2019-04-07T23:33:48.828Z,113.70
2019-04-07T23:36:18.131Z,113.68
2019-04-07T23:38:47.539Z,113.83
2019-04-07T23:41:18.105Z,87.60
2019-04-07T23:43:47.931Z,119.05
2019-04-07T23:46:23.200Z,95.00
2019-04-07T23:48:53.961Z,97.15
2019-04-07T23:51:23.347Z,98.47
2019-04-07T23:54:09.283Z,96.32
2019-04-07T23:56:39.607Z,99.75
2019-04-07T23:59:08.994Z,112.32
